createdAt,value
2023-05-12T00:01:26.946Z,10.06
2023-05-12T00:03:54.118Z,10.08
2023-05-12T00:06:21.243Z,10.11
2023-05-12T00:08:48.205Z,10.15
2023-05-12T00:11:15.172Z,10.20
2023-05-12T00:13:42.091Z,10.24
2023-05-12T00:16:09.650Z,10.20
2023-05-12T00:18:36.509Z,10.22
2023-05-12T00:21:03.530Z,10.27
2023-05-12T00:23:30.366Z,10.29
2023-05-12T00:25:57.208Z,10.30
2023-05-12T00:28:23.957Z,10.33
2023-05-12T00:30:50.792Z,10.37
2023-05-12T00:33:17.636Z,10.38
2023-05-12T00:35:47.350Z,10.36
2023-05-12T00:38:14.394Z,10.37
2023-05-12T00:40:41.539Z,10.35
2023-05-12T00:43:08.393Z,10.31
2023-05-12T00:45:36.392Z,10.28
2023-05-12T00:48:04.929Z,10.24
2023-05-12T00:50:32.090Z,10.23
2023-05-12T00:53:01.489Z,10.22
2023-05-12T00:55:30.600Z,10.19
2023-05-12T00:57:58.576Z,10.12
2023-05-12T01:00:26.317Z,10.06
2023-05-12T01:02:53.845Z,10.02
2023-05-12T01:05:21.029Z,9.98
2023-05-12T01:07:49.303Z,9.92
2023-05-12T01:10:21.745Z,9.84
2023-05-12T01:12:48.927Z,9.76
2023-05-12T01:15:17.713Z,9.69
2023-05-12T01:17:52.742Z,9.62
2023-05-12T01:20:22.461Z,9.56
2023-05-12T01:22:50.125Z,9.49
2023-05-12T01:25:22.082Z,9.44
2023-05-12T01:27:50.054Z,9.39
2023-05-12T01:30:18.529Z,9.35
2023-05-12T01:32:45.508Z,9.33
2023-05-12T01:35:12.738Z,9.31
2023-05-12T01:37:45.849Z,9.28
2023-05-12T01:40:13.481Z,9.25
2023-05-12T01:42:42.058Z,9.25
2023-05-12T01:45:10.333Z,9.27
2023-05-12T01:47:37.853Z,9.31
2023-05-12T01:50:09.954Z,9.34
2023-05-12T01:52:37.310Z,9.37
2023-05-12T01:55:07.734Z,9.41
2023-05-12T01:57:39.609Z,9.44
2023-05-12T02:00:07.463Z,9.45
2023-05-12T02:02:42.764Z,9.48
2023-05-12T02:05:11.078Z,9.49
2023-05-12T02:07:37.877Z,9.41
2023-05-12T02:10:06.205Z,9.36
2023-05-12T02:12:34.168Z,9.36
2023-05-12T02:15:01.627Z,9.39
2023-05-12T02:17:29.929Z,9.42
2023-05-12T02:19:58.893Z,9.39
2023-05-12T02:22:26.247Z,9.36
2023-05-12T02:24:53.191Z,9.35
2023-05-12T02:27:20.142Z,9.32
2023-05-12T02:29:47.594Z,9.23
2023-05-12T02:32:15.052Z,9.11
2023-05-12T02:34:43.446Z,9.04
2023-05-12T02:37:10.388Z,9.03
2023-05-12T02:39:37.339Z,9.00
2023-05-12T02:42:04.775Z,8.94
2023-05-12T02:44:31.849Z,8.85
2023-05-12T02:46:59.074Z,8.79
2023-05-12T02:49:25.830Z,8.74
2023-05-12T02:51:55.036Z,8.68
2023-05-12T02:54:22.477Z,8.63
2023-05-12T02:56:49.315Z,8.58
2023-05-12T02:59:16.389Z,8.56
2023-05-12T03:01:43.226Z,8.54
2023-05-12T03:04:10.349Z,8.52
2023-05-12T03:06:37.512Z,8.52
2023-05-12T03:09:04.753Z,8.75
2023-05-12T03:11:31.592Z,9.31
2023-05-12T03:13:58.751Z,9.99
2023-05-12T03:16:25.616Z,10.61
2023-05-12T03:18:53.174Z,11.16
2023-05-12T03:21:19.990Z,11.71
2023-05-12T03:23:46.836Z,12.27
2023-05-12T03:26:13.569Z,12.80
2023-05-12T03:28:40.413Z,13.28
2023-05-12T03:31:07.306Z,13.67
2023-05-12T03:33:34.197Z,14.05
2023-05-12T03:36:01.142Z,14.06
2023-05-12T03:38:28.088Z,14.30
2023-05-12T03:41:05.781Z,14.49
2023-05-12T03:43:32.855Z,14.70
2023-05-12T03:46:00.894Z,15.17
2023-05-12T03:48:28.105Z,15.71
2023-05-12T03:50:54.995Z,16.19
2023-05-12T03:53:21.944Z,16.41
2023-05-12T03:55:48.828Z,16.76
2023-05-12T03:58:16.338Z,16.98
2023-05-12T04:00:44.204Z,17.53
2023-05-12T04:03:11.401Z,17.89
2023-05-12T04:05:39.018Z,18.20
2023-05-12T04:08:05.964Z,18.81
2023-05-12T04:10:32.807Z,18.97
2023-05-12T04:12:59.644Z,19.26
2023-05-12T04:15:27.004Z,19.73
2023-05-12T04:17:53.989Z,19.40
2023-05-12T04:20:21.999Z,19.54
2023-05-12T04:22:48.963Z,20.29
2023-05-12T04:25:15.806Z,20.53
2023-05-12T04:27:42.751Z,20.55
2023-05-12T04:30:09.637Z,20.62
2023-05-12T04:32:38.413Z,21.08
2023-05-12T04:35:07.266Z,20.56
2023-05-12T04:37:34.738Z,20.97
2023-05-12T04:40:01.779Z,21.45
2023-05-12T04:42:30.468Z,20.89
2023-05-12T04:44:57.514Z,21.00
2023-05-12T04:47:24.388Z,21.29
2023-05-12T04:49:51.603Z,21.70
2023-05-12T04:52:18.457Z,22.15
2023-05-12T04:54:45.593Z,22.53
2023-05-12T04:57:12.543Z,22.58
2023-05-12T04:59:41.295Z,23.02
2023-05-12T05:02:09.608Z,23.07
2023-05-12T05:04:37.063Z,22.99
2023-05-12T05:07:05.038Z,23.21
2023-05-12T05:09:33.851Z,23.25
2023-05-12T05:12:01.989Z,23.08
2023-05-12T05:14:29.048Z,23.52
2023-05-12T05:16:57.313Z,24.68
2023-05-12T05:19:35.238Z,25.00
2023-05-12T05:22:06.664Z,25.10
2023-05-12T05:24:33.507Z,25.15
2023-05-12T05:27:00.453Z,25.13
2023-05-12T05:29:28.134Z,25.82
2023-05-12T05:31:55.188Z,25.61
2023-05-12T05:34:22.274Z,25.57
2023-05-12T05:36:49.563Z,26.06
2023-05-12T05:39:16.711Z,26.29
2023-05-12T05:41:43.552Z,25.68
2023-05-12T05:44:10.499Z,23.88
2023-05-12T05:46:37.536Z,24.25
2023-05-12T05:49:04.489Z,24.35
2023-05-12T05:51:32.742Z,24.99
2023-05-12T05:54:00.017Z,24.80
2023-05-12T05:56:26.961Z,23.51
2023-05-12T05:58:54.036Z,23.11
2023-05-12T06:01:20.804Z,23.62
2023-05-12T06:03:47.902Z,23.06
2023-05-12T06:06:16.589Z,23.80
2023-05-12T06:08:43.834Z,23.49
2023-05-12T06:11:11.596Z,23.52
2023-05-12T06:13:38.435Z,23.82
2023-05-12T06:16:05.592Z,24.44
2023-05-12T06:18:37.537Z,23.91
2023-05-12T06:21:05.619Z,23.78
2023-05-12T06:23:32.979Z,22.75
2023-05-12T06:25:59.818Z,22.46
2023-05-12T06:28:28.010Z,22.11
2023-05-12T06:30:54.830Z,22.90
2023-05-12T06:33:21.683Z,22.09
2023-05-12T06:35:48.534Z,22.54
2023-05-12T06:38:15.981Z,21.88
2023-05-12T06:40:44.660Z,22.09
2023-05-12T06:43:12.540Z,22.63
2023-05-12T06:45:39.781Z,22.18
2023-05-12T06:48:08.787Z,22.36
2023-05-12T06:50:35.956Z,21.98
2023-05-12T06:53:03.200Z,20.80
2023-05-12T06:55:30.127Z,20.91
2023-05-12T06:57:57.079Z,19.77
2023-05-12T07:00:25.138Z,20.16
2023-05-12T07:02:52.364Z,20.26
2023-05-12T07:05:20.611Z,19.45
2023-05-12T07:07:47.711Z,19.83
2023-05-12T07:10:14.870Z,20.18
2023-05-12T07:12:41.821Z,20.31
2023-05-12T07:15:09.564Z,19.95
2023-05-12T07:17:36.565Z,19.78
2023-05-12T07:20:05.200Z,20.08
2023-05-12T07:22:32.144Z,20.20
2023-05-12T07:24:59.220Z,20.06
2023-05-12T07:27:26.442Z,19.69
2023-05-12T07:29:53.276Z,19.77
2023-05-12T07:32:20.137Z,19.44
2023-05-12T07:34:46.862Z,19.60
2023-05-12T07:37:13.813Z,19.68
2023-05-12T07:39:40.762Z,19.64
2023-05-12T07:42:08.518Z,19.72
2023-05-12T07:44:35.870Z,19.72
2023-05-12T07:47:02.768Z,19.71
2023-05-12T07:49:29.664Z,19.63
2023-05-12T07:51:56.503Z,19.35
2023-05-12T07:54:23.561Z,19.56
2023-05-12T07:56:50.299Z,19.33
2023-05-12T07:59:17.132Z,18.96
2023-05-12T08:01:44.001Z,18.83
2023-05-12T08:04:11.143Z,18.85
2023-05-12T08:06:38.168Z,17.97
2023-05-12T08:09:05.015Z,17.84
2023-05-12T08:11:32.270Z,17.96
2023-05-12T08:13:59.824Z,17.86
2023-05-12T08:16:26.914Z,17.91
2023-05-12T08:18:53.734Z,17.35
2023-05-12T08:21:20.554Z,17.06
2023-05-12T08:23:47.503Z,17.36
2023-05-12T08:26:14.350Z,17.21
2023-05-12T08:28:41.281Z,17.14
2023-05-12T08:31:08.171Z,17.15
2023-05-12T08:33:35.691Z,16.97
2023-05-12T08:36:02.951Z,17.26
2023-05-12T08:38:31.324Z,17.06
2023-05-12T08:41:22.629Z,17.12
2023-05-12T08:43:51.527Z,17.36
2023-05-12T08:46:20.756Z,17.27
2023-05-12T08:48:51.760Z,17.24
2023-05-12T08:51:19.322Z,17.27
2023-05-12T08:53:48.413Z,17.36
2023-05-12T08:58:49.367Z,17.37
2023-05-12T09:01:17.629Z,17.35
2023-05-12T09:03:44.996Z,17.37
2023-05-12T09:06:12.863Z,17.31
2023-05-12T09:08:40.334Z,17.41
2023-05-12T09:11:10.854Z,17.64
2023-05-12T09:14:01.143Z,17.53
2023-05-12T09:16:50.381Z,17.39
2023-05-12T09:19:21.041Z,17.37
2023-05-12T09:21:48.399Z,17.23
2023-05-12T09:24:15.236Z,17.39
2023-05-12T09:26:46.944Z,17.34
2023-05-12T09:29:24.046Z,17.40
2023-05-12T09:31:53.011Z,17.55
2023-05-12T09:34:37.833Z,17.44
2023-05-12T09:37:06.005Z,17.38
2023-05-12T09:39:33.571Z,17.12
2023-05-12T09:42:00.433Z,17.06
2023-05-12T09:44:30.444Z,17.03
2023-05-12T09:47:06.815Z,17.12
2023-05-12T09:49:33.738Z,17.34
2023-05-12T09:52:00.685Z,17.28
2023-05-12T09:54:29.259Z,17.23
2023-05-12T09:57:08.087Z,17.37
2023-05-12T09:59:37.975Z,17.50
2023-05-12T10:02:08.611Z,17.51
2023-05-12T10:04:52.620Z,17.63
2023-05-12T10:07:22.739Z,17.97
2023-05-12T10:09:49.969Z,18.11
2023-05-12T10:12:16.990Z,17.90
2023-05-12T10:14:44.363Z,18.21
2023-05-12T10:17:12.059Z,18.48
2023-05-12T10:19:41.515Z,18.36
2023-05-12T10:22:15.288Z,18.13
2023-05-12T10:24:43.286Z,18.38
2023-05-12T10:27:11.359Z,18.52
2023-05-12T10:29:39.123Z,18.60
2023-05-12T10:32:06.578Z,18.32
2023-05-12T10:34:36.306Z,18.49
2023-05-12T10:37:10.259Z,18.72
2023-05-12T10:39:46.564Z,18.98
2023-05-12T10:42:17.201Z,18.89
2023-05-12T10:44:50.701Z,19.11
2023-05-12T10:47:17.859Z,18.78
2023-05-12T10:49:44.684Z,18.79
2023-05-12T10:52:13.388Z,18.27
2023-05-12T10:54:45.203Z,18.02
2023-05-12T10:57:17.869Z,17.92
2023-05-12T10:59:51.958Z,17.78
2023-05-12T11:02:26.182Z,17.77
2023-05-12T11:05:05.294Z,17.69
2023-05-12T11:07:35.290Z,17.72
2023-05-12T11:10:05.356Z,17.64
2023-05-12T11:12:36.875Z,17.58
2023-05-12T11:15:06.226Z,17.58
2023-05-12T11:17:33.669Z,17.51
2023-05-12T11:20:00.923Z,17.46
2023-05-12T11:22:28.083Z,17.62
2023-05-12T11:24:55.539Z,17.64
2023-05-12T11:27:23.873Z,17.75
2023-05-12T11:30:06.555Z,17.72
2023-05-12T11:32:33.611Z,17.73
2023-05-12T11:35:12.320Z,17.61
2023-05-12T11:37:41.210Z,17.71
2023-05-12T11:40:22.545Z,17.85
2023-05-12T11:42:51.921Z,17.67
2023-05-12T11:45:27.957Z,17.48
2023-05-12T11:48:16.057Z,17.64
2023-05-12T11:50:48.908Z,17.83
2023-05-12T11:53:18.489Z,17.88
2023-05-12T11:55:50.058Z,17.60
2023-05-12T11:58:29.993Z,17.51
2023-05-12T12:01:08.618Z,17.55
2023-05-12T12:03:47.132Z,17.42
2023-05-12T12:06:15.302Z,17.60
2023-05-12T12:08:55.864Z,17.68
2023-05-12T12:11:27.017Z,17.94
2023-05-12T12:13:57.848Z,17.85
2023-05-12T12:16:29.880Z,17.91
2023-05-12T12:18:57.421Z,17.88
2023-05-12T12:21:25.134Z,17.81
2023-05-12T12:23:53.102Z,17.90
2023-05-12T12:26:22.613Z,17.80
2023-05-12T12:28:49.778Z,18.08
2023-05-12T12:31:20.554Z,18.28
2023-05-12T12:33:47.438Z,18.23
2023-05-12T12:36:15.296Z,18.24
2023-05-12T12:38:42.139Z,18.38
2023-05-12T12:41:09.083Z,18.57
2023-05-12T12:43:36.233Z,18.59
2023-05-12T12:46:03.078Z,18.41
2023-05-12T12:48:31.659Z,18.38
2023-05-12T12:51:00.661Z,18.29
2023-05-12T12:53:28.102Z,18.29
2023-05-12T12:55:56.085Z,18.31
2023-05-12T12:58:23.133Z,18.43
2023-05-12T13:00:50.516Z,18.42
2023-05-12T13:03:19.518Z,18.39
2023-05-12T13:05:47.232Z,18.49
2023-05-12T13:08:14.176Z,18.60
2023-05-12T13:10:41.517Z,18.66
2023-05-12T13:13:11.446Z,18.68
2023-05-12T13:15:39.002Z,18.71
2023-05-12T13:18:05.925Z,18.73
2023-05-12T13:20:33.302Z,18.63
2023-05-12T13:23:00.042Z,18.61
2023-05-12T13:25:26.894Z,18.55
2023-05-12T13:27:53.852Z,18.50
2023-05-12T13:30:22.104Z,18.48
2023-05-12T13:32:49.479Z,18.49
2023-05-12T13:35:16.521Z,18.51
2023-05-12T13:37:43.453Z,18.45
2023-05-12T13:40:10.906Z,18.40
2023-05-12T13:42:37.969Z,18.39
2023-05-12T13:45:06.363Z,18.37
2023-05-12T13:47:33.570Z,18.35
2023-05-12T13:50:00.761Z,18.33
2023-05-12T13:52:27.879Z,18.29
2023-05-12T13:54:54.729Z,18.26
2023-05-12T13:57:21.564Z,18.24
2023-05-12T13:59:50.045Z,18.26
2023-05-12T14:02:17.411Z,18.30
2023-05-12T14:04:44.362Z,18.32
2023-05-12T14:07:12.210Z,18.30
2023-05-12T14:09:39.164Z,18.32
2023-05-12T14:12:06.609Z,18.36
2023-05-12T14:14:33.568Z,18.36
2023-05-12T14:17:00.403Z,18.30
2023-05-12T14:19:27.244Z,18.19
2023-05-12T14:21:54.090Z,18.26
2023-05-12T14:24:21.032Z,18.20
2023-05-12T14:26:47.887Z,18.22
2023-05-12T14:29:14.741Z,18.27
2023-05-12T14:31:41.609Z,18.32
2023-05-12T14:34:08.823Z,18.35
2023-05-12T14:36:35.649Z,18.39
2023-05-12T14:39:02.700Z,18.39
2023-05-12T14:41:29.645Z,18.33
2023-05-12T14:43:57.305Z,18.25
2023-05-12T14:46:25.320Z,18.18
2023-05-12T14:48:52.219Z,18.08
2023-05-12T14:51:19.065Z,17.99
2023-05-12T14:53:46.118Z,17.95
2023-05-12T14:56:12.951Z,17.92
2023-05-12T14:58:40.014Z,17.90
2023-05-12T15:01:09.364Z,17.91
2023-05-12T15:03:36.939Z,17.89
2023-05-12T15:06:07.360Z,17.89
2023-05-12T15:08:34.843Z,17.86
2023-05-12T15:11:01.687Z,17.83
2023-05-12T15:13:28.645Z,17.81
2023-05-12T15:15:56.752Z,17.77
2023-05-12T15:18:24.079Z,17.70
2023-05-12T15:20:51.327Z,17.65
2023-05-12T15:23:18.258Z,17.62
2023-05-12T15:25:45.094Z,17.56
2023-05-12T15:28:12.050Z,17.52
2023-05-12T15:30:38.986Z,17.48
2023-05-12T15:33:06.544Z,17.45
2023-05-12T15:35:33.896Z,17.40
2023-05-12T15:38:00.758Z,17.32
2023-05-12T15:40:30.056Z,17.26
2023-05-12T15:42:57.495Z,17.18
2023-05-12T15:45:24.338Z,17.12
2023-05-12T15:47:51.263Z,17.04
2023-05-12T15:50:22.037Z,16.97
2023-05-12T15:52:49.163Z,16.90
2023-05-12T15:55:16.422Z,16.84
2023-05-12T15:57:43.262Z,16.82
2023-05-12T16:00:10.976Z,16.80
2023-05-12T16:02:40.888Z,16.77
2023-05-12T16:05:09.142Z,16.77
2023-05-12T16:07:36.082Z,16.75
2023-05-12T16:10:03.320Z,16.69
2023-05-12T16:12:30.777Z,16.61
2023-05-12T16:14:57.611Z,16.52
2023-05-12T16:17:24.850Z,16.43
2023-05-12T16:19:53.241Z,16.35
2023-05-12T16:22:20.102Z,16.28
2023-05-12T16:24:47.125Z,16.22
2023-05-12T16:27:14.076Z,16.15
2023-05-12T16:29:44.907Z,16.09
2023-05-12T16:32:11.909Z,16.01
2023-05-12T16:34:39.100Z,15.93
2023-05-12T16:37:06.150Z,15.85
2023-05-12T16:39:35.244Z,15.78
2023-05-12T16:42:02.807Z,15.71
2023-05-12T16:44:29.760Z,15.63
2023-05-12T16:46:56.488Z,15.52
2023-05-12T16:49:23.328Z,15.45
2023-05-12T16:51:50.169Z,15.39
2023-05-12T16:54:17.957Z,15.30
2023-05-12T16:56:44.888Z,15.22
2023-05-12T16:59:11.830Z,15.13
2023-05-12T17:01:39.040Z,15.05
2023-05-12T17:04:11.344Z,14.97
2023-05-12T17:06:38.183Z,14.89
2023-05-12T17:09:05.337Z,14.80
2023-05-12T17:11:32.177Z,14.69
2023-05-12T17:14:00.355Z,14.58
2023-05-12T17:16:27.148Z,14.50
2023-05-12T17:21:23.947Z,14.35
2023-05-12T17:23:50.790Z,14.26
2023-05-12T17:26:17.647Z,14.17
2023-05-12T17:28:44.924Z,14.08
2023-05-12T17:31:12.059Z,13.99
2023-05-12T17:33:39.085Z,13.88
2023-05-12T17:36:12.364Z,13.80
2023-05-12T17:38:40.682Z,13.72
2023-05-12T17:41:07.617Z,13.64
2023-05-12T17:43:34.543Z,13.57
2023-05-12T17:46:01.919Z,13.50
2023-05-12T17:48:32.630Z,13.44
2023-05-12T17:51:00.812Z,13.38
2023-05-12T17:53:27.558Z,13.31
2023-05-12T17:55:55.219Z,13.25
2023-05-12T17:58:22.682Z,13.20
2023-05-12T18:00:50.139Z,13.14
2023-05-12T18:03:22.534Z,13.10
2023-05-12T18:05:50.972Z,13.05
2023-05-12T18:08:18.144Z,12.99
2023-05-12T18:10:46.296Z,12.95
2023-05-12T18:13:14.909Z,12.89
2023-05-12T18:15:41.925Z,12.84
2023-05-12T18:18:09.625Z,12.80
2023-05-12T18:20:36.437Z,12.77
2023-05-12T18:23:03.679Z,12.73
2023-05-12T18:25:30.521Z,12.69
2023-05-12T18:27:57.620Z,12.63
2023-05-12T18:30:24.420Z,12.54
2023-05-12T18:32:51.432Z,12.45
2023-05-12T18:35:19.238Z,12.35
2023-05-12T18:37:46.267Z,12.26
2023-05-12T18:40:13.015Z,12.17
2023-05-12T18:42:40.156Z,12.10
2023-05-12T18:45:07.619Z,12.02
2023-05-12T18:47:34.502Z,11.95
2023-05-12T18:50:01.709Z,11.87
2023-05-12T18:52:28.447Z,11.80
2023-05-12T18:54:55.293Z,11.72
2023-05-12T18:57:22.239Z,11.67
2023-05-12T18:59:49.080Z,11.64
2023-05-12T19:02:16.946Z,11.62
2023-05-12T19:04:44.016Z,11.54
2023-05-12T19:07:14.725Z,11.48
2023-05-12T19:09:42.594Z,11.42
2023-05-12T19:12:12.627Z,11.35
2023-05-12T19:14:40.380Z,11.30
2023-05-12T19:17:07.219Z,11.25
2023-05-12T19:19:34.469Z,11.20
2023-05-12T19:22:02.151Z,11.15
2023-05-12T19:24:29.623Z,11.11
2023-05-12T19:26:57.044Z,11.08
2023-05-12T19:29:25.727Z,11.04
2023-05-12T19:31:53.350Z,11.02
2023-05-12T19:34:20.964Z,10.99
2023-05-12T19:36:48.025Z,10.97
2023-05-12T19:39:14.853Z,10.95
2023-05-12T19:41:41.791Z,10.92
2023-05-12T19:44:08.622Z,10.89
2023-05-12T19:46:35.671Z,10.89
2023-05-12T19:49:05.268Z,10.90
2023-05-12T19:51:32.533Z,10.91
2023-05-12T19:53:59.497Z,10.93
2023-05-12T19:56:26.734Z,10.94
2023-05-12T19:58:53.673Z,10.95
2023-05-12T20:01:20.686Z,10.97
2023-05-12T20:03:47.613Z,10.98
2023-05-12T20:06:14.509Z,10.98
2023-05-12T20:08:41.349Z,10.98
2023-05-12T20:11:08.406Z,10.98
2023-05-12T20:13:35.349Z,10.99
2023-05-12T20:16:02.385Z,11.01
2023-05-12T20:18:29.240Z,11.03
2023-05-12T20:20:56.089Z,11.02
2023-05-12T20:23:22.917Z,11.00
2023-05-12T20:25:52.006Z,11.00
2023-05-12T20:28:20.814Z,10.99
2023-05-12T20:30:47.884Z,10.97
2023-05-12T20:33:14.888Z,10.94
2023-05-12T20:35:41.945Z,10.92
2023-05-12T20:38:08.810Z,10.88
2023-05-12T20:40:35.827Z,10.85
2023-05-12T20:43:02.592Z,10.82
2023-05-12T20:45:29.410Z,10.76
2023-05-12T20:47:56.527Z,10.71
2023-05-12T20:50:23.917Z,10.64
2023-05-12T20:52:50.777Z,10.57
2023-05-12T20:55:17.577Z,10.51
2023-05-12T20:57:44.449Z,10.46
2023-05-12T21:00:13.015Z,10.42
2023-05-12T21:02:40.298Z,10.37
2023-05-12T21:05:07.320Z,10.32
2023-05-12T21:07:34.168Z,10.29
2023-05-12T21:10:02.570Z,10.25
2023-05-12T21:12:29.590Z,10.19
2023-05-12T21:14:56.636Z,10.12
2023-05-12T21:17:23.538Z,10.08
2023-05-12T21:19:50.527Z,10.02
2023-05-12T21:22:17.368Z,9.97
2023-05-12T21:24:44.516Z,9.92
2023-05-12T21:27:11.460Z,9.89
2023-05-12T21:29:38.204Z,9.85
2023-05-12T21:32:05.596Z,9.82
2023-05-12T21:34:33.115Z,9.79
2023-05-12T21:37:00.073Z,9.75
2023-05-12T21:39:27.927Z,9.71
2023-05-12T21:41:54.968Z,9.67
2023-05-12T21:44:21.842Z,9.65
2023-05-12T21:46:48.762Z,9.62
2023-05-12T21:49:15.630Z,9.60
2023-05-12T21:51:42.359Z,9.56
2023-05-12T21:54:09.488Z,9.56
2023-05-12T21:56:36.258Z,9.56
2023-05-12T21:59:02.978Z,9.55
2023-05-12T22:01:30.167Z,9.57
2023-05-12T22:03:58.358Z,9.61
2023-05-12T22:06:25.654Z,9.65
2023-05-12T22:08:53.619Z,9.67
2023-05-12T22:11:21.188Z,9.69
2023-05-12T22:13:48.745Z,9.71
2023-05-12T22:16:16.433Z,9.74
2023-05-12T22:18:43.639Z,9.75
2023-05-12T22:21:12.238Z,9.75
2023-05-12T22:23:41.227Z,9.75
2023-05-12T22:26:08.904Z,9.69
2023-05-12T22:28:35.833Z,9.63
2023-05-12T22:31:02.921Z,9.60
2023-05-12T22:33:30.649Z,9.54
2023-05-12T22:36:00.972Z,9.52
2023-05-12T22:38:27.916Z,9.54
2023-05-12T22:40:54.768Z,9.53
2023-05-12T22:43:21.902Z,9.53
2023-05-12T22:45:52.557Z,9.54
2023-05-12T22:48:19.801Z,9.56
2023-05-12T22:50:47.064Z,9.56
2023-05-12T22:53:14.806Z,9.54
2023-05-12T22:55:41.656Z,9.53
2023-05-12T22:58:09.921Z,9.53
2023-05-12T23:00:37.304Z,9.53
2023-05-12T23:03:04.490Z,9.52
2023-05-12T23:05:31.483Z,9.51
2023-05-12T23:07:58.310Z,9.50
2023-05-12T23:10:25.258Z,9.50
2023-05-12T23:12:52.122Z,9.51
2023-05-12T23:15:19.047Z,9.52
2023-05-12T23:17:45.933Z,9.53
2023-05-12T23:20:13.245Z,9.52
2023-05-12T23:22:40.198Z,9.53
2023-05-12T23:25:07.748Z,9.51
2023-05-12T23:27:35.716Z,9.49
2023-05-12T23:30:02.873Z,9.45
2023-05-12T23:32:29.906Z,9.42
2023-05-12T23:34:56.749Z,9.42
2023-05-12T23:37:24.483Z,9.39
2023-05-12T23:39:51.359Z,9.37
2023-05-12T23:42:18.223Z,9.34
2023-05-12T23:44:45.144Z,9.31
2023-05-12T23:47:11.992Z,9.29
2023-05-12T23:49:38.828Z,9.27
2023-05-12T23:52:06.182Z,9.25
2023-05-12T23:54:33.024Z,9.24
2023-05-12T23:56:59.872Z,9.25
2023-05-12T23:59:26.708Z,9.25
